Terminal Aerodrome Forecast
Issued by NWS

Home | Current Version | Previous Version | Text Only | Print | Product List | Glossary On
Versions: 1 2 3 4 5 6 7 8 9 10 11 12 13 14
000
FTUS43 KEAX 171720
TAFMKC
TAF
KMKC 171720Z 1718/1818 24006KT P6SM BKN010
     FM172000 VRB04KT P6SM BKN025
     FM180000 20004KT P6SM OVC035
     FM180600 23005KT P6SM BKN020
     FM181000 23006KT P6SM SCT030=

USA.gov is the U.S. government's official web portal to all federal, state and local government web resources and services.